Time;durP1;ratioP1;P1;durP2;ratioP2;P2;SDS_P1;SDS_P2;PMS_P1;PMS_P2;Temp;Humidity;BMP_temperature;BMP_pressure;BME280_temperature;BME280_humidity;BME280_pressure;Samples;Min_cycle;Max_cycle;Signal;HPM_P1;HPM_P2
2022/11/16 00:02:42;;;;;;;29.15;16.00;;;;;;;5.22;89.04;100058.24;3364248;82;20983;-74
2022/11/16 00:07:33;;;;;;;29.90;19.60;;;;;;;5.24;89.10;100065.63;3375722;83;21320;-74
2022/11/16 00:12:24;;;;;;;26.75;14.85;;;;;;;5.25;89.12;100063.49;3390582;82;20980;-73
2022/11/16 00:17:16;;;;;;;24.67;14.43;;;;;;;5.26;89.03;100058.81;3359647;82;20940;-74
2022/11/16 00:22:07;;;;;;;25.55;14.13;;;;;;;5.28;89.10;100055.86;3333817;82;21000;-74
2022/11/16 00:26:58;;;;;;;26.77;15.28;;;;;;;5.29;88.95;100059.30;3377629;82;21031;-74
2022/11/16 00:31:50;;;;;;;25.02;15.58;;;;;;;5.25;88.97;100037.72;3391207;82;22111;-74
2022/11/16 00:36:42;;;;;;;22.42;13.83;;;;;;;5.25;88.97;100037.72;3400792;82;20917;-74
2022/11/16 00:41:33;;;;;;;24.10;14.25;;;;;;;5.23;88.88;100041.97;3362649;84;20987;-74
2022/11/16 00:46:24;;;;;;;19.82;12.58;;;;;;;5.23;88.88;100041.97;3358450;82;21517;-74
2022/11/16 00:51:16;;;;;;;22.60;12.88;;;;;;;5.22;88.81;100036.77;3387778;83;21054;-73
2022/11/16 00:56:07;;;;;;;22.67;12.43;;;;;;;5.23;89.01;100038.52;3337790;82;22529;-73
2022/11/16 01:01:07;;;;;;;23.57;12.70;;;;;;;5.25;89.07;100031.28;3388565;82;21313;-74
2022/11/16 01:06:10;;;;;;;23.38;11.83;;;;;;;5.25;88.89;100031.70;3359002;82;21090;-72
2022/11/16 01:16:17;;;;;;;21.62;12.60;;;;;;;5.26;88.91;100021.44;3378090;83;20984;-74
2022/11/16 01:21:09;;;;;;;19.65;11.95;;;;;;;5.27;88.96;100025.74;3363541;82;21107;-74
2022/11/16 01:26:00;;;;;;;20.37;11.85;;;;;;;5.27;88.85;100020.59;3387512;83;21586;-74
2022/11/16 01:30:52;;;;;;;21.15;12.20;;;;;;;5.27;88.82;100020.59;3346390;84;21036;-74
2022/11/16 01:35:43;;;;;;;20.60;11.53;;;;;;;5.29;88.87;100030.95;3404537;83;20913;-74
2022/11/16 01:40:37;;;;;;;20.35;12.30;;;;;;;5.28;88.78;100025.34;3357818;82;21742;-74
2022/11/16 01:45:41;;;;;;;22.35;11.75;;;;;;;5.27;88.95;100008.98;3311646;82;21188;-74
2022/11/16 01:50:36;;;;;;;21.48;12.10;;;;;;;5.27;88.95;100008.98;3347985;83;20969;-74
2022/11/16 01:55:29;;;;;;;20.20;11.95;;;;;;;5.28;88.72;99999.15;3373363;82;20992;-74
2022/11/16 02:00:34;;;;;;;18.23;12.00;;;;;;;5.24;88.67;99996.04;3364320;83;20996;-74
2022/11/16 02:05:42;;;;;;;16.62;10.58;;;;;;;5.23;88.58;99989.12;3372600;82;20909;-74
2022/11/16 02:10:48;;;;;;;17.92;11.12;;;;;;;5.19;88.68;99980.87;3311652;85;21311;-74
2022/11/16 02:16:04;;;;;;;16.85;10.05;;;;;;;5.20;88.64;99973.58;3318760;85;21620;-74
2022/11/16 02:21:26;;;;;;;15.28;9.68;;;;;;;5.18;88.64;99958.48;3285483;85;21001;-74
2022/11/16 02:27:03;;;;;;;19.25;10.38;;;;;;;5.18;88.59;99959.78;3323061;85;20971;-74
2022/11/16 02:32:35;;;;;;;15.85;9.30;;;;;;;5.16;88.72;99963.59;3321620;85;20989;-74
2022/11/16 02:37:33;;;;;;;19.07;10.18;;;;;;;5.16;88.72;99963.59;3317473;85;21023;-74
2022/11/16 02:42:44;;;;;;;14.73;10.05;;;;;;;5.14;88.57;99942.50;3277065;85;20972;-74
2022/11/16 02:47:39;;;;;;;13.58;9.43;;;;;;;5.14;88.57;99942.50;3357131;82;20952;-74
2022/11/16 02:52:31;;;;;;;15.90;10.90;;;;;;;5.14;88.63;99948.94;3386156;84;21473;-74
2022/11/16 02:57:52;;;;;;;15.90;9.55;;;;;;;5.16;88.70;99948.56;3385812;83;21027;-75
2022/11/16 03:03:04;;;;;;;13.05;9.38;;;;;;;5.15;88.63;99941.25;3385448;83;21212;-74
2022/11/16 03:08:10;;;;;;;15.35;9.38;;;;;;;5.15;88.60;99945.52;3381575;82;20966;-74
2022/11/16 03:13:07;;;;;;;17.17;11.48;;;;;;;5.15;88.55;99941.64;3390422;83;20948;-75
2022/11/16 03:17:59;;;;;;;15.10;10.75;;;;;;;5.14;88.53;99939.50;3373519;82;21505;-74
2022/11/16 03:22:58;;;;;;;17.05;10.68;;;;;;;5.14;88.56;99934.34;3386299;84;21015;-75
2022/11/16 03:28:04;;;;;;;17.02;11.15;;;;;;;5.12;88.79;99927.42;3383584;82;22398;-74
2022/11/16 03:33:19;;;;;;;18.90;11.12;;;;;;;5.12;88.79;99927.42;3415378;82;20924;-74
2022/11/16 03:38:15;;;;;;;17.98;10.53;;;;;;;5.12;88.71;99922.27;3361358;82;20932;-72
2022/11/16 03:43:09;;;;;;;15.10;10.65;;;;;;;5.12;88.71;99922.27;3393034;82;21039;-73
2022/11/16 03:48:00;;;;;;;18.32;11.50;;;;;;;5.09;88.43;99924.33;3389222;83;21059;-73
2022/11/16 03:52:52;;;;;;;16.93;10.55;;;;;;;5.10;88.55;99913.62;3314164;83;21003;-73
2022/11/16 03:57:43;;;;;;;15.50;11.33;;;;;;;5.10;88.55;99913.62;3362632;84;21083;-73
2022/11/16 04:02:35;;;;;;;15.00;9.93;;;;;;;5.07;88.37;99903.23;3357374;82;20966;-74
2022/11/16 04:28:27;;;;;;;17.80;11.22;;;;;;;5.03;88.59;99889.82;3387466;82;20948;-73
2022/11/16 04:38:30;;;;;;;18.95;12.03;;;;;;;5.01;88.52;99887.59;3382939;83;21008;-73
2022/11/16 04:43:22;;;;;;;19.67;12.50;;;;;;;5.01;88.65;99894.93;3339172;82;21409;-73
2022/11/16 04:48:17;;;;;;;17.90;11.88;;;;;;;5.01;88.68;99892.35;3414700;82;21106;-73
2022/11/16 04:53:09;;;;;;;18.15;12.23;;;;;;;5.00;88.55;99872.98;3357986;83;21514;-74
2022/11/16 04:58:03;;;;;;;22.90;13.93;;;;;;;5.00;88.55;99872.98;3369648;82;21036;-73
2022/11/16 05:02:54;;;;;;;22.87;12.85;;;;;;;5.04;88.86;99873.09;3386701;83;20997;-73
2022/11/16 05:07:46;;;;;;;21.95;14.03;;;;;;;5.03;88.83;99870.50;3359518;83;21446;-73
2022/11/16 05:12:39;;;;;;;25.17;14.68;;;;;;;5.03;88.99;99867.92;3386143;82;21021;-73
2022/11/16 05:17:32;;;;;;;22.95;14.80;;;;;;;4.99;89.07;99866.08;3397533;83;21035;-73
2022/11/16 05:22:25;;;;;;;24.18;13.48;;;;;;;5.07;89.32;99874.89;3398634;82;21479;-74
2022/11/16 05:27:19;;;;;;;23.27;13.65;;;;;;;5.07;89.38;99880.91;3392359;82;21693;-73
2022/11/16 05:32:12;;;;;;;22.73;14.90;;;;;;;5.10;89.47;99882.70;3377560;82;22765;-73
2022/11/16 05:37:04;;;;;;;24.07;13.93;;;;;;;5.11;89.54;99881.86;3366321;82;21470;-73
2022/11/16 05:41:56;;;;;;;27.15;15.50;;;;;;;5.10;89.47;99876.27;3370670;83;21554;-73
2022/11/16 05:46:48;;;;;;;22.95;14.75;;;;;;;5.12;89.57;99887.48;3343511;81;20972;-73
2022/11/16 05:51:44;;;;;;;31.23;16.70;;;;;;;5.11;89.64;99893.45;3331009;84;20944;-74
2022/11/16 05:56:37;;;;;;;22.55;14.07;;;;;;;5.11;89.64;99893.45;3394068;82;21554;-73
2022/11/16 06:01:28;;;;;;;24.82;15.15;;;;;;;5.11;89.76;99885.30;3386726;82;20983;-74
2022/11/16 06:06:21;;;;;;;25.08;15.28;;;;;;;5.10;89.75;99889.15;3404849;82;21550;-74
2022/11/16 06:11:14;;;;;;;25.15;16.52;;;;;;;5.12;89.83;99886.19;3385780;83;21205;-74
2022/11/16 06:16:05;;;;;;;25.32;15.05;;;;;;;5.12;89.92;99888.34;3371608;82;21477;-75
2022/11/16 06:20:59;;;;;;;25.35;15.00;;;;;;;5.13;89.91;99893.06;3382582;83;22074;-73
2022/11/16 06:25:54;;;;;;;26.80;15.20;;;;;;;5.15;90.01;99888.82;3361362;82;21011;-73
2022/11/16 06:30:47;;;;;;;25.85;15.63;;;;;;;5.13;89.97;99886.23;3385424;82;21485;-73
2022/11/16 06:35:44;;;;;;;23.85;14.90;;;;;;;5.17;90.05;99892.34;3388974;83;20987;-75
2022/11/16 06:40:38;;;;;;;24.82;14.73;;;;;;;5.19;90.27;99891.95;3303285;85;21563;-74
2022/11/16 06:45:30;;;;;;;22.70;14.40;;;;;;;5.19;90.27;99891.95;3273577;84;21130;-72
2022/11/16 06:50:22;;;;;;;23.67;14.13;;;;;;;5.27;90.09;99898.16;3267510;84;21055;-75
2022/11/16 06:55:15;;;;;;;23.07;13.53;;;;;;;5.30;90.02;99900.82;3293472;84;21040;-73
2022/11/16 07:00:38;;;;;;;19.90;13.43;;;;;;;5.32;89.94;99903.02;3291670;84;21083;-78
2022/11/16 07:05:30;;;;;;;20.80;12.55;;;;;;;5.28;89.60;99891.31;3159590;87;20990;-74
2022/11/16 07:10:22;;;;;;;25.27;14.70;;;;;;;5.28;89.60;99891.31;3200323;87;21325;-75
2022/11/16 07:15:14;;;;;;;24.75;13.25;;;;;;;5.31;89.80;99883.25;3161059;87;21050;-74
2022/11/16 07:20:08;;;;;;;20.95;12.88;;;;;;;5.30;89.80;99882.78;3181540;88;21057;-73
2022/11/16 07:25:01;;;;;;;19.85;13.53;;;;;;;5.31;89.94;99879.37;3161821;87;21119;-72
2022/11/16 07:29:53;;;;;;;22.87;12.63;;;;;;;5.33;89.96;99881.57;3202394;87;22275;-73
2022/11/16 07:34:56;;;;;;;24.95;13.53;;;;;;;5.32;90.00;99882.39;3203149;88;21021;-73
2022/11/16 07:39:47;;;;;;;20.55;12.43;;;;;;;5.31;90.06;99872.94;3201202;87;21043;-73
2022/11/16 07:44:41;;;;;;;19.90;12.90;;;;;;;5.31;90.06;99872.94;3286290;86;21095;-73
2022/11/16 07:49:33;;;;;;;20.30;13.00;;;;;;;5.33;90.09;99873.84;3277073;85;21290;-73
2022/11/16 07:54:26;;;;;;;19.65;12.82;;;;;;;5.32;90.04;99869.50;3236200;86;20991;-73
2022/11/16 07:59:42;;;;;;;19.62;13.28;;;;;;;5.30;90.13;99871.17;3331556;84;21283;-74
2022/11/16 08:04:37;;;;;;;23.10;13.20;;;;;;;5.28;90.19;99868.98;3148304;87;21136;-74
2022/11/16 08:09:29;;;;;;;19.10;12.25;;;;;;;5.30;90.32;99867.73;3179196;88;22261;-72
2022/11/16 08:14:23;;;;;;;19.92;13.62;;;;;;;5.33;90.35;99863.53;3153501;89;21497;-73
2022/11/16 08:19:39;;;;;;;22.90;14.05;;;;;;;5.40;90.21;99866.23;3111540;88;21127;-76
2022/11/16 08:24:50;;;;;;;23.27;14.40;;;;;;;5.43;90.16;99863.31;3047319;91;21259;-76
2022/11/16 08:30:01;;;;;;;;;;;;;;;;;;;;;
2022/11/16 08:35:07;;;;;;;24.20;14.60;;;;;;;5.50;90.04;99851.45;3052856;92;21016;-73
2022/11/16 08:45:20;;;;;;;19.32;12.78;;;;;;;5.57;90.18;99855.92;3075065;92;21008;-72
2022/11/16 08:50:12;;;;;;;18.15;13.20;;;;;;;5.65;90.01;99852.22;3069834;92;21289;-73
2022/11/16 08:55:13;;;;;;;20.75;13.25;;;;;;;5.68;90.14;99849.30;3039390;92;21111;-74
2022/11/16 09:00:10;;;;;;;17.10;12.18;;;;;;;5.70;90.01;99851.48;3052991;92;21102;-73
2022/11/16 09:05:22;;;;;;;15.58;10.32;;;;;;;5.68;90.04;99860.03;3014227;92;21771;-75
2022/11/16 09:10:09;;;;;;;;;;;;;;;5.64;90.11;99853.08;3060273;92;21126;-75
2022/11/16 09:15:00;;;;;;;10.00;7.30;;;;;;;5.58;89.78;99861.55;3154600;87;21958;-76
2022/11/16 09:25:08;;;;;;;10.32;5.55;;;;;;;5.67;89.35;99854.02;3382491;83;21556;-74
2022/11/16 09:30:18;;;;;;;8.73;5.62;;;;;;;5.79;89.23;99853.40;3351423;82;20963;-73
2022/11/16 09:35:14;;;;;;;9.45;4.90;;;;;;;5.87;88.61;99838.12;3397585;82;20991;-74
2022/11/16 09:40:11;;;;;;;10.15;6.58;;;;;;;5.87;88.61;99838.12;3396442;83;21157;-73
2022/11/16 09:45:15;;;;;;;7.00;5.00;;;;;;;5.88;88.49;99839.44;3353108;83;21003;-73
2022/11/16 09:50:50;;;;;;;8.18;4.65;;;;;;;5.88;88.49;99839.44;3381787;82;20980;-74
2022/11/16 09:55:49;;;;;;;10.03;5.97;;;;;;;5.84;88.43;99835.46;3383582;82;20976;-72
2022/11/16 10:00:49;;;;;;;20.52;8.38;;;;;;;5.72;88.76;99814.12;3376530;83;21834;-73
2022/11/16 10:05:45;;;;;;;10.88;6.83;;;;;;;5.77;89.10;99836.16;3377080;83;22042;-73
2022/11/16 10:10:42;;;;;;;8.73;6.67;;;;;;;5.81;88.90;99822.48;3384335;82;21676;-72
2022/11/16 10:15:48;;;;;;;9.73;6.95;;;;;;;5.88;88.76;99826.94;3404611;82;20986;-74
2022/11/16 10:21:12;;;;;;;10.50;7.45;;;;;;;5.93;88.59;99818.45;3389833;83;21019;-74
2022/11/16 10:26:00;;;;;;;9.18;6.87;;;;;;;5.95;88.87;99800.43;3380468;82;20955;-74
2022/11/16 10:31:23;;;;;;;10.88;7.03;;;;;;;5.98;88.75;99804.84;3390592;83;21602;-74
2022/11/16 10:36:14;;;;;;;9.38;6.45;;;;;;;5.98;88.48;99795.80;3394923;82;21022;-73
2022/11/16 10:41:27;;;;;;;8.88;6.65;;;;;;;6.03;88.37;99786.02;3331699;83;21222;-74
2022/11/16 10:46:27;;;;;;;9.38;6.33;;;;;;;6.07;88.10;99790.40;3345203;82;20972;-75
2022/11/16 10:51:18;;;;;;;13.13;6.47;;;;;;;6.02;88.20;99766.20;3421964;82;20998;-74
2022/11/16 10:56:41;;;;;;;8.45;6.35;;;;;;;5.99;87.76;99768.75;3368428;82;21831;-75
2022/11/16 11:01:49;;;;;;;9.35;6.55;;;;;;;5.99;87.76;99768.75;3401183;83;21537;-74
2022/11/16 11:06:42;;;;;;;7.85;5.72;;;;;;;5.99;87.72;99788.50;3428990;81;21582;-74
2022/11/16 11:16:43;;;;;;;7.67;6.03;;;;;;;5.90;87.51;99787.45;3357936;83;22084;-73
2022/11/16 11:21:34;;;;;;;6.28;5.37;;;;;;;5.88;87.37;99798.56;3340121;83;21149;-73
2022/11/16 11:26:46;;;;;;;7.15;6.05;;;;;;;5.94;86.97;99788.39;3327900;83;20954;-74
2022/11/16 11:31:43;;;;;;;7.03;5.33;;;;;;;5.94;86.97;99788.39;3398536;83;21542;-73
2022/11/16 11:36:46;;;;;;;8.23;5.93;;;;;;;5.98;87.11;99783.77;3419801;83;21032;-73
2022/11/16 11:41:45;;;;;;;10.35;6.62;;;;;;;6.05;87.21;99792.08;3357987;82;21208;-73
2022/11/16 11:46:41;;;;;;;7.28;5.55;;;;;;;6.14;87.19;99790.54;3341331;83;22673;-73
2022/11/16 11:51:52;;;;;;;;;;;;;;;;;;;;;
2022/11/16 11:56:41;;;;;;;6.17;5.15;;;;;;;6.33;87.05;99782.72;3418101;81;21467;-74
2022/11/16 12:07:25;;;;;;;6.87;5.30;;;;;;;6.46;86.43;99784.27;3420382;82;21586;-73
2022/11/16 12:12:37;;;;;;;7.17;5.25;;;;;;;6.52;86.37;99782.22;3367484;84;21101;-74
2022/11/16 12:17:45;;;;;;;7.20;4.37;;;;;;;6.59;86.46;99778.05;3413172;82;20968;-74
2022/11/16 12:23:27;;;;;;;4.87;3.62;;;;;;;6.47;85.92;99776.99;3381000;82;20964;-75
2022/11/16 12:28:45;;;;;;;3.95;3.20;;;;;;;6.33;85.86;99769.41;3374710;83;21003;-75
2022/11/16 12:33:46;;;;;;;;;;;;;;;6.28;85.92;99776.19;3369363;83;20925;-77
2022/11/16 12:38:43;;;;;;;3.45;3.12;;;;;;;6.18;85.70;99779.42;3389522;84;22129;-74
2022/11/16 12:44:04;;;;;;;1.80;1.70;;;;;;;6.04;86.18;99778.72;3413070;83;21028;-73
2022/11/16 12:49:04;;;;;;;3.08;2.72;;;;;;;5.87;85.68;99786.52;3390398;84;21118;-73
2022/11/16 12:54:04;;;;;;;1.60;1.50;;;;;;;5.63;85.63;99781.69;3408069;83;21003;-75
2022/11/16 12:59:16;;;;;;;1.80;1.52;;;;;;;5.46;85.74;99799.38;3400223;82;20954;-76
2022/11/16 13:04:28;;;;;;;1.82;1.70;;;;;;;5.26;85.87;99807.51;3374309;82;22061;-75
2022/11/16 13:09:31;;;;;;;2.02;1.60;;;;;;;5.14;86.29;99800.77;3384813;83;20964;-75
2022/11/16 13:14:38;;;;;;;2.90;2.27;;;;;;;5.07;86.49;99800.17;3340367;84;20989;-77
2022/11/16 13:19:30;;;;;;;2.60;1.85;;;;;;;5.03;86.78;99808.66;3370144;83;21579;-72
2022/11/16 13:24:30;;;;;;;2.50;2.00;;;;;;;4.97;86.84;99804.20;3361628;84;21369;-73
2022/11/16 13:29:45;;;;;;;4.53;1.87;;;;;;;4.90;86.92;99807.46;3388365;83;21665;-75
2022/11/16 13:34:39;;;;;;;2.52;1.87;;;;;;;4.86;86.90;99810.37;3383038;82;20958;-73
2022/11/16 13:40:02;;;;;;;3.17;1.98;;;;;;;4.80;86.78;99808.95;3415924;83;20926;-73
2022/11/16 13:45:07;;;;;;;2.62;2.42;;;;;;;4.71;86.66;99799.70;3409337;83;22082;-74
2022/11/16 13:50:10;;;;;;;3.37;2.62;;;;;;;4.56;86.51;99805.30;3383623;82;20961;-75
2022/11/16 13:55:07;;;;;;;3.35;3.12;;;;;;;4.49;86.65;99814.58;3394438;82;21686;-73
2022/11/16 14:00:09;;;;;;;3.25;2.85;;;;;;;4.38;86.57;99809.53;3398687;83;20980;-74
2022/11/16 14:05:11;;;;;;;2.95;2.70;;;;;;;4.30;86.81;99818.77;3386133;82;21027;-73
2022/11/16 14:10:06;;;;;;;3.95;3.20;;;;;;;4.16;86.96;99810.23;3411629;82;21813;-74
2022/11/16 14:15:17;;;;;;;4.12;3.30;;;;;;;4.11;87.19;99819.52;3340729;83;21475;-74
2022/11/16 14:20:12;;;;;;;5.47;4.03;;;;;;;4.12;87.26;99814.84;3343852;83;22759;-74
2022/11/16 14:25:33;;;;;;;4.28;3.87;;;;;;;4.01;86.94;99826.53;3389127;83;21106;-74
2022/11/16 14:30:56;;;;;;;3.90;3.50;;;;;;;3.97;87.17;99825.56;3406875;82;20979;-74
2022/11/16 14:35:51;;;;;;;3.10;2.83;;;;;;;3.88;86.59;99830.84;3310359;85;21466;-75
2022/11/16 14:40:47;;;;;;;4.45;3.10;;;;;;;3.77;86.58;99833.09;3291118;85;20985;-74
2022/11/16 14:45:39;;;;;;;3.95;3.37;;;;;;;3.72;86.61;99832.07;3299915;85;21037;-73
2022/11/16 14:50:31;;;;;;;3.77;3.20;;;;;;;3.67;86.64;99833.23;3311428;85;21533;-73
2022/11/16 14:55:25;;;;;;;3.65;3.35;;;;;;;3.64;86.70;99838.27;3299184;84;21004;-73
2022/11/16 15:00:25;;;;;;;3.50;3.08;;;;;;;3.59;86.68;99832.98;3296517;83;21326;-73
2022/11/16 15:05:25;;;;;;;3.95;3.55;;;;;;;3.55;86.46;99836.29;3312145;84;21513;-74
2022/11/16 15:10:23;;;;;;;3.60;3.27;;;;;;;3.56;86.57;99837.16;3307631;83;21167;-74
2022/11/16 15:15:20;;;;;;;3.17;2.90;;;;;;;3.54;86.63;99836.23;3389408;82;21001;-75
2022/11/16 15:20:20;;;;;;;3.90;3.40;;;;;;;3.54;86.61;99825.95;3408007;82;20992;-74
2022/11/16 15:25:41;;;;;;;3.83;3.52;;;;;;;3.50;86.58;99824.13;3389090;83;21604;-74
2022/11/16 15:30:38;;;;;;;3.77;2.58;;;;;;;3.51;86.63;99824.59;3297899;84;20984;-75
2022/11/16 15:35:35;;;;;;;2.95;2.65;;;;;;;3.50;86.76;99818.98;3351804;82;21875;-74
2022/11/16 15:40:27;;;;;;;3.92;2.55;;;;;;;3.50;86.77;99823.70;3379740;83;20932;-73
2022/11/16 15:45:23;;;;;;;3.17;2.87;;;;;;;3.47;86.52;99825.30;3358728;83;20960;-75
2022/11/16 15:50:21;;;;;;;3.35;2.87;;;;;;;3.50;86.53;99831.84;3384157;83;20995;-74
2022/11/16 15:55:33;;;;;;;3.22;2.80;;;;;;;3.47;86.55;99835.59;3382335;83;21066;-74
2022/11/16 16:00:27;;;;;;;3.85;3.25;;;;;;;3.45;86.54;99832.96;3389714;83;21620;-73
2022/11/16 16:05:37;;;;;;;3.37;3.08;;;;;;;3.46;86.72;99824.86;3358598;82;21316;-74
2022/11/16 16:10:28;;;;;;;3.30;3.00;;;;;;;3.44;86.62;99825.67;3364312;83;20920;-74
2022/11/16 16:15:32;;;;;;;3.90;3.35;;;;;;;3.43;86.57;99827.80;3394622;83;21444;-74
2022/11/16 16:20:27;;;;;;;4.22;3.40;;;;;;;3.44;86.82;99831.23;3369214;83;21529;-74
2022/11/16 16:25:34;;;;;;;4.08;3.30;;;;;;;3.42;86.66;99832.47;3379797;83;21565;-73
2022/11/16 16:30:43;;;;;;;4.22;3.50;;;;;;;3.44;86.77;99830.81;3344550;83;21261;-73
2022/11/16 16:35:34;;;;;;;4.87;3.52;;;;;;;3.42;86.82;99825.18;3350157;84;20969;-75
2022/11/16 16:40:27;;;;;;;4.05;3.50;;;;;;;3.43;86.74;99837.19;3330454;84;21084;-74
2022/11/16 16:45:38;;;;;;;4.70;3.83;;;;;;;3.43;86.84;99835.52;3289795;84;20960;-74
2022/11/16 16:50:43;;;;;;;4.05;3.65;;;;;;;3.43;86.72;99836.80;3323322;84;48727;-74
2022/11/16 16:55:37;;;;;;;5.17;3.98;;;;;;;3.46;86.73;99828.30;3333571;83;21558;-74
2022/11/16 17:00:28;;;;;;;4.12;3.42;;;;;;;3.46;86.69;99840.28;3317315;84;21015;-74
2022/11/16 17:05:19;;;;;;;6.35;4.12;;;;;;;3.48;86.82;99840.78;3327218;83;21103;-73
2022/11/16 17:10:18;;;;;;;5.00;4.50;;;;;;;3.48;86.41;99842.48;3342423;82;21597;-73
2022/11/16 17:15:09;;;;;;;6.85;4.08;;;;;;;3.44;86.30;99845.37;3367908;82;21485;-74
2022/11/16 17:20:00;;;;;;;4.85;3.42;;;;;;;3.42;86.28;99849.59;3354110;82;20976;-74
2022/11/16 17:24:51;;;;;;;6.62;3.08;;;;;;;3.41;86.42;99855.55;3393097;82;20921;-74
2022/11/16 17:29:43;;;;;;;3.83;3.42;;;;;;;3.43;86.39;99858.64;3326357;83;20956;-74
2022/11/16 17:34:34;;;;;;;4.95;3.42;;;;;;;3.42;86.36;99855.59;3372004;84;20980;-74
2022/11/16 17:39:25;;;;;;;3.67;3.37;;;;;;;3.40;86.30;99863.67;3319753;83;21365;-74
2022/11/16 17:44:18;;;;;;;3.10;2.90;;;;;;;3.38;86.36;99863.14;3345710;81;21023;-74
2022/11/16 17:49:10;;;;;;;3.20;2.85;;;;;;;3.38;86.36;99861.47;3368767;82;20987;-74
2022/11/16 17:54:01;;;;;;;3.45;3.00;;;;;;;3.37;86.58;99853.28;3363786;82;21473;-74
2022/11/16 17:59:08;;;;;;;4.08;3.20;;;;;;;3.30;86.21;99855.20;3394455;81;21122;-73
2022/11/16 18:03:47;;;;;;;3.40;2.65;;;;;;;3.27;86.20;99852.94;3382074;82;21016;-74
2022/11/16 18:08:40;;;;;;;6.30;4.83;;;;;;;3.23;86.22;99855.41;3322773;82;21470;-75
2022/11/16 18:13:33;;;;;;;4.45;2.90;;;;;;;3.21;86.42;99848.06;3357215;83;21513;-75
2022/11/16 18:18:24;;;;;;;5.37;3.33;;;;;;;3.20;86.12;99848.00;3280351;85;20987;-75
2022/11/16 18:23:16;;;;;;;3.85;3.22;;;;;;;3.20;86.33;99852.76;3298399;85;21548;-73
2022/11/16 18:28:07;;;;;;;4.40;3.15;;;;;;;3.21;86.34;99846.78;3366331;83;21978;-74
2022/11/16 18:32:58;;;;;;;5.55;3.15;;;;;;;3.20;86.32;99853.14;3351739;83;20972;-74
2022/11/16 18:37:49;;;;;;;4.57;3.23;;;;;;;3.19;86.25;99855.27;3382558;82;20978;-74
2022/11/16 18:42:40;;;;;;;3.98;3.58;;;;;;;3.17;86.37;99855.64;3359633;81;21364;-74
2022/11/16 18:47:32;;;;;;;4.78;3.50;;;;;;;3.20;86.63;99853.14;3316820;83;21411;-73
2022/11/16 18:52:23;;;;;;;4.05;3.58;;;;;;;3.19;86.25;99856.55;3383075;82;22065;-73
2022/11/16 18:57:14;;;;;;;7.90;4.55;;;;;;;3.16;86.44;99857.73;3325342;83;21007;-73
2022/11/16 19:02:06;;;;;;;4.20;3.70;;;;;;;3.18;86.53;99862.50;3323756;83;20968;-73
2022/11/16 19:06:57;;;;;;;4.87;4.12;;;;;;;3.19;86.49;99853.98;3320410;81;21453;-74
2022/11/16 19:11:50;;;;;;;4.20;3.80;;;;;;;3.19;86.51;99856.55;3366317;83;20979;-74
2022/11/16 19:16:45;;;;;;;5.03;4.33;;;;;;;3.19;86.44;99862.98;3338226;83;21864;-74
2022/11/16 19:21:34;;;;;;;4.62;4.10;;;;;;;3.21;86.37;99858.76;3365212;82;21011;-74
2022/11/16 19:26:27;;;;;;;5.85;4.40;;;;;;;3.17;86.36;99860.77;3412629;83;20928;-73
2022/11/16 19:31:39;;;;;;;5.50;4.78;;;;;;;3.19;86.39;99854.85;3384827;82;21509;-75
2022/11/16 19:36:35;;;;;;;5.67;4.70;;;;;;;3.19;86.28;99863.84;3244740;86;21010;-74
2022/11/16 19:41:27;;;;;;;8.00;5.12;;;;;;;3.19;86.30;99866.83;3249238;86;20995;-75
2022/11/16 19:46:23;;;;;;;6.10;5.47;;;;;;;3.18;86.34;99865.97;3206429;86;20971;-75
2022/11/16 19:51:22;;;;;;;6.80;6.12;;;;;;;3.18;86.37;99866.35;3240997;86;21015;-74
2022/11/16 19:56:17;;;;;;;6.70;5.53;;;;;;;3.18;86.21;99867.64;3218934;86;21047;-75
2022/11/16 20:01:19;;;;;;;8.03;6.87;;;;;;;3.15;86.09;99867.53;3223749;86;20979;-75
2022/11/16 20:06:14;;;;;;;10.20;6.50;;;;;;;3.15;86.22;99864.95;3225204;86;21820;-75
2022/11/16 20:11:19;;;;;;;9.18;7.08;;;;;;;3.15;86.27;99872.67;3260338;85;21079;-74
2022/11/16 20:16:12;;;;;;;8.13;6.65;;;;;;;3.15;86.25;99867.53;3220167;85;21308;-74
2022/11/16 20:21:04;;;;;;;8.90;6.55;;;;;;;3.19;86.23;99874.54;3233738;85;20976;-75
2022/11/16 20:25:56;;;;;;;9.38;7.70;;;;;;;3.19;86.03;99871.97;3284480;82;22012;-75
2022/11/16 20:30:47;;;;;;;10.75;8.23;;;;;;;3.20;86.05;99877.16;3355624;81;21271;-75
2022/11/16 20:35:38;;;;;;;8.63;7.60;;;;;;;3.21;85.98;99879.31;3410640;82;21110;-74
2022/11/16 20:40:30;;;;;;;10.58;9.03;;;;;;;3.23;85.69;99873.81;3362245;83;22016;-75
2022/11/16 20:45:21;;;;;;;10.43;8.48;;;;;;;3.24;85.42;99870.43;3370742;82;20971;-74
2022/11/16 20:50:12;;;;;;;9.25;7.95;;;;;;;3.25;85.42;99868.30;3345855;82;21019;-74
2022/11/16 20:55:04;;;;;;;8.58;7.60;;;;;;;3.27;85.45;99865.37;3358306;83;21831;-74
2022/11/16 20:59:55;;;;;;;10.00;8.98;;;;;;;3.29;85.28;99868.89;3393669;82;20947;-74
2022/11/16 21:04:47;;;;;;;9.38;8.45;;;;;;;3.29;85.02;99874.02;3426483;82;21042;-76
2022/11/16 21:10:17;;;;;;;11.48;8.88;;;;;;;3.26;84.68;99868.78;3365118;81;21019;-73
2022/11/16 21:14:31;;;;;;;9.33;8.43;;;;;;;3.26;84.92;99872.63;3293699;84;21019;-75
2022/11/16 21:19:22;;;;;;;9.85;8.85;;;;;;;3.27;84.65;99869.22;3306550;83;20990;-74
2022/11/16 21:24:13;;;;;;;10.85;9.48;;;;;;;3.28;84.61;99876.12;3361621;82;21067;-75
2022/11/16 21:29:05;;;;;;;9.90;8.83;;;;;;;3.28;84.70;99874.84;3324550;83;20978;-74
2022/11/16 21:33:59;;;;;;;10.10;8.95;;;;;;;3.28;84.42;99873.97;3322887;83;21560;-74
2022/11/16 21:38:52;;;;;;;13.08;10.03;;;;;;;3.27;84.50;99865.37;3313243;83;21437;-74
2022/11/16 21:43:43;;;;;;;10.93;8.78;;;;;;;3.28;84.50;99864.56;3314238;84;21868;-74
2022/11/16 21:48:35;;;;;;;11.22;9.28;;;;;;;3.28;84.52;99862.41;3325556;83;21016;-75
2022/11/16 21:53:26;;;;;;;9.65;8.65;;;;;;;3.26;84.27;99861.07;3319292;83;20920;-75
2022/11/16 21:58:17;;;;;;;8.85;7.95;;;;;;;3.24;84.18;99859.73;3304142;83;21308;-74
2022/11/16 22:03:09;;;;;;;9.18;8.10;;;;;;;3.24;84.26;99858.45;3338280;83;20998;-74
2022/11/16 22:08:06;;;;;;;9.38;7.62;;;;;;;3.25;83.98;99861.88;3364264;83;21497;-75
2022/11/16 22:12:58;;;;;;;;;;;;;;;3.24;83.97;99855.87;3321036;83;21064;-75
2022/11/16 22:17:49;;;;;;;5.95;5.35;;;;;;;3.23;83.58;99854.53;3342351;84;20161;-75
2022/11/16 22:22:42;;;;;;;5.65;4.55;;;;;;;3.20;83.23;99849.30;3331301;83;21038;-75
2022/11/16 22:27:34;;;;;;;5.17;4.67;;;;;;;3.18;82.90;99853.52;3327566;84;20948;-76
2022/11/16 22:32:27;;;;;;;4.70;4.20;;;;;;;3.17;82.91;99856.92;3357944;83;22043;-75
2022/11/16 22:37:18;;;;;;;7.33;3.83;;;;;;;3.15;82.63;99854.69;3358410;83;20975;-75
2022/11/16 22:42:12;;;;;;;5.47;4.45;;;;;;;3.14;82.56;99846.11;3350226;83;20985;-74
2022/11/16 22:47:04;;;;;;;4.97;3.87;;;;;;;3.14;82.37;99852.95;3283297;83;21086;-74
2022/11/16 22:51:55;;;;;;;4.80;3.67;;;;;;;3.12;82.46;99855.47;3296235;83;20979;-75
2022/11/16 22:56:47;;;;;;;4.50;3.98;;;;;;;3.11;82.29;99856.70;3355691;83;21061;-76
2022/11/16 23:01:43;;;;;;;4.45;3.95;;;;;;;3.11;82.25;99855.41;3327667;83;20973;-76
2022/11/16 23:06:35;;;;;;;5.28;4.37;;;;;;;3.10;82.23;99852.41;3337425;83;20941;-76
2022/11/16 23:16:38;;;;;;;5.25;3.72;;;;;;;3.05;82.02;99853.10;3319445;83;21002;-74
2022/11/16 23:31:49;;;;;;;5.33;3.83;;;;;;;3.01;81.72;99852.55;3326056;84;20991;-75
2022/11/16 23:36:40;;;;;;;3.45;3.12;;;;;;;2.96;81.27;99851.52;3307856;84;21050;-76
2022/11/16 23:46:41;;;;;;;4.05;3.20;;;;;;;2.92;81.06;99870.22;3323995;83;21325;-76
2022/11/16 23:51:33;;;;;;;3.62;3.27;;;;;;;2.90;80.95;99861.59;3286781;83;20972;-75
2022/11/16 23:56:24;;;;;;;3.65;3.35;;;;;;;2.88;80.94;99860.67;3348696;83;21559;-75
